Maxatawny, Pennsylvania
Current Conditions -  °F | °C
As of 10:55 AM on Thursday 27 Nov 2014 (Local Time) from KXLL Reporting Station
Overcast Overcast  
Wind Chill: -2°   Ceiling: 1800
Heat Index:   Visibility: 10mi
Dew Point: -2°   Wind: 6mph
Humidity: 81%   Direction: 300°WNW
Pressure: 30.04"   Gusts: NA
Location:  40.54°N, 75.69°W
Report Text: KXLL 271555Z AUTO 30005KT 10SM BKN018 OVC040 01/M02 A3004 RMK AO2
Loading
Personal Weather Stations






























Interactive Weather Map New forecast layout! Learn more

10-Day Weather Forecast

Advertisements
Track Severe Weather on mobile